KART/ART METAR and TAF weather

Enter ICAO airport designator
Station Type Date Time Source
KART METAR 2021/07/27 20:56 UTC NOAA

KART 272056Z AUTO 03004KT 10SM SCT034 BKN095 21/17 A2994 RMK AO2 SLP137 60000 T02060172 51003


Station Type Date Time Source
KART Decoded METAR 2021/07/27 20:56 UTC NOAA

WATERTOWN INTERNATIONAL AIRPORT, NY, United States (KART) 43-59N 076-02W 100M
Jul 27, 2021 - 04:56 PM EDT / 2021.07.27 2056 UTC
Wind: from the NNE (030 degrees) at 5 MPH (4 KT):0
Visibility: 10 mile(s):0
Sky conditions: mostly cloudy
Temperature: 69.1 F (20.6 C)
Dew Point: 63.0 F (17.2 C)
Relative Humidity: 80%
Pressure (altimeter): 29.94 in. Hg (1013 hPa)
Pressure tendency: 0.01 inches (0.3 hPa) higher than three hours ago
ob: KART 272056Z AUTO 03004KT 10SM SCT034 BKN095 21/17 A2994 RMK AO2 SLP137 60000 T02060172 51003
cycle: 21

Station Type Date Time Source
KART TAF 2021/07/27 21:30 UTC NOAA

TAF
AMD KART 272127Z 2721/2818 04008KT P6SM VCSH SCT030 BKN100
FM280000 02005KT P6SM BKN015
FM281200 04005KT P6SM BKN035

Example: see airport list